Hood River, OR (97031)

7:52 PM PDT on September 01, 2015 (GMT -0700)
MesoWest | | Change Station
CLOSE
Current Station
Personal Weather Station
Location: Hood River, OR
Elevation: 570 ft
Nearby Weather Stations

Elev 570 ft 45.69 °N, 121.52 °W | Updated 47 minutes ago

Overcast
Overcast
70 °F
Feels Like 70 °F
N
9
Wind Variable Wind from WNW
Gusts 16.0 mph

Today
High -- | Low -- °F
--% Chance of Precip.
Yesterday
High -- | Low -- °F
Precip. -- in
6:27 AM 7:44 PM
Waning Gibbous, 84% visible
Pressure 29.74 in
Visibility 10.0 miles
Clouds Clear
Dew Point 53 °F
Humidity 55%
Rainfall in
Snow Depth Not available.
UV 0 out of 12
Pollen 2.90 out of 12
Air Quality Not available.
Flu Activity Not available.
METAR KDLS 020153Z AUTO 31013G23KT 10SM CLR 23/10 A2974 RMK AO2 SLP071 T02330100
Pressure 29.74 in
Visibility 10.0 miles
Clouds Clear
Dew Point 53 °F
Humidity 55%
Rainfall in
Snow Depth Not available.
UV 0 out of 12
Pollen 2.90 out of 12
Air Quality Not available.
Flu Activity Not available.
METAR KDLS 020153Z AUTO 31013G23KT 10SM CLR 23/10 A2974 RMK AO2 SLP071 T02330100

10-Day Weather Forecast

×

Almanac

Astronomy

Sep. 01, 2015 Rise Set
Actual Time
Civil Twilight
Nautical Twilight
Astronomical Twilight
Moon
Length of Visible Light
Length of Day
Tomorrow will be .
, % of the Moon is Illuminated

Today's Extremes

State Highs State Lows

Community

WunderPhotos

Upload Photos

1,851,682 photos uploaded!

WunderBlogs® & News

Nearby

Air Quality

  Air Quality AQ Index Pollutant
Not available.

Snow Depth

Station Depth Elevation

Earthquake Activity

City Distance Mag. Time & Date
Minimum magnitude displayed is 2.5.

Coastal Water Temperatures

Place Temperature

Stations

Nearby Weather Stations

Station Location Temp. Windchill Dew Point Humidity Wind Precip. Elev Updated Type